N42J KRIC-KRDU
Flight info
| Callsign | N42J |
|---|---|
| Flight time | 0h 35m |
| Altitude | 8500 |
| Route | KRIC/20 N0278F200 DCT LVL DCT MARBY DCT DABKE DCT PRSTN DCT BODLY DCT KRDU/23R |
| Aircraft | PC12/L-V/N |
Departure
| Time | 2026-04-29 21:28 |
|---|---|
| Airport | Richmond International Airport (KRIC) |
Arrival
| Time | 2026-04-29 22:04 |
|---|---|
| Airport | Raleigh-Durham International Airport (KRDU) |
| Time | Latitude | Longitude | Altitude | Speed | Heading |
|---|---|---|---|---|---|
| 2026-04-29 21:15 | 37.51654 | -77.31898 | 165 ft | 0 kts | 57° |
| 2026-04-29 21:19 | 37.51663 | -77.31896 | 165 ft | 4 kts | 326° |
| 2026-04-29 21:19 | 37.51675 | -77.31974 | 166 ft | 13 kts | 281° |
| 2026-04-29 21:20 | 37.51690 | -77.32047 | 167 ft | 0 kts | 284° |
| 2026-04-29 21:23 | 37.51694 | -77.32090 | 167 ft | 11 kts | 270° |
| 2026-04-29 21:24 | 37.51732 | -77.32172 | 167 ft | 15 kts | 284° |
| 2026-04-29 21:24 | 37.51700 | -77.32262 | 167 ft | 0 kts | 239° |
| 2026-04-29 21:26 | 37.51678 | -77.32304 | 167 ft | 11 kts | 233° |
| 2026-04-29 21:27 | 37.51633 | -77.32424 | 164 ft | 15 kts | 255° |
| 2026-04-29 21:27 | 37.51599 | -77.32452 | 163 ft | 0 kts | 189° |
| 2026-04-29 21:27 | 37.51539 | -77.32469 | 163 ft | 38 kts | 195° |
| 2026-04-29 21:27 | 37.51022 | -77.32622 | 164 ft | 107 kts | 194° |
| 2026-04-29 21:28 | 37.50205 | -77.32856 | 404 ft | 125 kts | 186° |
| 2026-04-29 21:28 | 37.49286 | -77.33018 | 764 ft | 140 kts | 178° |
| 2026-04-29 21:28 | 37.48276 | -77.32984 | 1217 ft | 149 kts | 173° |
| 2026-04-29 21:28 | 37.47221 | -77.33201 | 1520 ft | 166 kts | 205° |
| 2026-04-29 21:29 | 37.46357 | -77.34272 | 1861 ft | 180 kts | 226° |
| 2026-04-29 21:29 | 37.45514 | -77.35493 | 2209 ft | 187 kts | 223° |
| 2026-04-29 21:29 | 37.44597 | -77.36674 | 2554 ft | 191 kts | 220° |
| 2026-04-29 21:29 | 37.43611 | -77.37807 | 2899 ft | 194 kts | 218° |
| 2026-04-29 21:30 | 37.42577 | -77.38896 | 3238 ft | 196 kts | 216° |
| 2026-04-29 21:30 | 37.41501 | -77.39961 | 3576 ft | 198 kts | 215° |
| 2026-04-29 21:30 | 37.40386 | -77.41011 | 3919 ft | 200 kts | 214° |
| 2026-04-29 21:30 | 37.39267 | -77.42036 | 4251 ft | 202 kts | 214° |
| 2026-04-29 21:31 | 37.38107 | -77.43067 | 4586 ft | 203 kts | 214° |
| 2026-04-29 21:31 | 37.36949 | -77.44078 | 4929 ft | 204 kts | 214° |
| 2026-04-29 21:31 | 37.35776 | -77.45091 | 5257 ft | 205 kts | 214° |
| 2026-04-29 21:31 | 37.34603 | -77.46100 | 5579 ft | 206 kts | 213° |
| 2026-04-29 21:32 | 37.33419 | -77.47110 | 5918 ft | 206 kts | 214° |
| 2026-04-29 21:32 | 37.32227 | -77.48122 | 6253 ft | 207 kts | 214° |
| 2026-04-29 21:32 | 37.31029 | -77.49135 | 6590 ft | 207 kts | 214° |
| 2026-04-29 21:32 | 37.29827 | -77.50149 | 6926 ft | 208 kts | 214° |
| 2026-04-29 21:33 | 37.28630 | -77.51157 | 7259 ft | 208 kts | 215° |
| 2026-04-29 21:33 | 37.27423 | -77.52171 | 7593 ft | 209 kts | 215° |
| 2026-04-29 21:33 | 37.26227 | -77.53175 | 7923 ft | 209 kts | 216° |
| 2026-04-29 21:33 | 37.25012 | -77.54195 | 8256 ft | 209 kts | 216° |
| 2026-04-29 21:34 | 37.23807 | -77.55207 | 8438 ft | 215 kts | 216° |
| 2026-04-29 21:34 | 37.22517 | -77.56294 | 8468 ft | 227 kts | 216° |
| 2026-04-29 21:34 | 37.21183 | -77.57416 | 8470 ft | 237 kts | 216° |
| 2026-04-29 21:34 | 37.19787 | -77.58589 | 8471 ft | 245 kts | 216° |
| 2026-04-29 21:35 | 37.18353 | -77.59792 | 8471 ft | 252 kts | 215° |
| 2026-04-29 21:35 | 37.16867 | -77.61030 | 8472 ft | 256 kts | 216° |
| 2026-04-29 21:35 | 37.15378 | -77.62286 | 8464 ft | 260 kts | 215° |
| 2026-04-29 21:35 | 37.13873 | -77.63545 | 8465 ft | 262 kts | 216° |
| 2026-04-29 21:36 | 37.12340 | -77.64822 | 8470 ft | 264 kts | 216° |
| 2026-04-29 21:36 | 37.10814 | -77.66097 | 8468 ft | 265 kts | 215° |
| 2026-04-29 21:36 | 37.09279 | -77.67378 | 8465 ft | 266 kts | 215° |
| 2026-04-29 21:36 | 37.07717 | -77.68681 | 8464 ft | 267 kts | 215° |
| 2026-04-29 21:37 | 37.06175 | -77.69967 | 8463 ft | 268 kts | 215° |
| 2026-04-29 21:37 | 37.04612 | -77.71268 | 8455 ft | 269 kts | 215° |
| 2026-04-29 21:37 | 37.03067 | -77.72555 | 8446 ft | 269 kts | 215° |
| 2026-04-29 21:37 | 37.01502 | -77.73858 | 8450 ft | 269 kts | 215° |
| 2026-04-29 21:38 | 36.99948 | -77.75150 | 8451 ft | 269 kts | 215° |
| 2026-04-29 21:38 | 36.98406 | -77.76433 | 8462 ft | 268 kts | 216° |
| 2026-04-29 21:38 | 36.96844 | -77.77731 | 8470 ft | 268 kts | 215° |
| 2026-04-29 21:38 | 36.95285 | -77.79026 | 8460 ft | 269 kts | 215° |
| 2026-04-29 21:39 | 36.93719 | -77.80325 | 8467 ft | 268 kts | 215° |
| 2026-04-29 21:39 | 36.92166 | -77.81613 | 8476 ft | 268 kts | 216° |
| 2026-04-29 21:39 | 36.90625 | -77.82891 | 8463 ft | 269 kts | 215° |
| 2026-04-29 21:39 | 36.89040 | -77.84203 | 8461 ft | 269 kts | 216° |
| 2026-04-29 21:40 | 36.87496 | -77.85484 | 8467 ft | 269 kts | 216° |
| 2026-04-29 21:40 | 36.85943 | -77.86769 | 8468 ft | 269 kts | 216° |
| 2026-04-29 21:40 | 36.84381 | -77.88063 | 8475 ft | 269 kts | 216° |
| 2026-04-29 21:40 | 36.82805 | -77.89367 | 8477 ft | 269 kts | 216° |
| 2026-04-29 21:41 | 36.81253 | -77.90678 | 8476 ft | 270 kts | 218° |
| 2026-04-29 21:41 | 36.79740 | -77.92027 | 8480 ft | 270 kts | 218° |
| 2026-04-29 21:41 | 36.78199 | -77.93404 | 8487 ft | 270 kts | 218° |
| 2026-04-29 21:41 | 36.76677 | -77.94758 | 8481 ft | 270 kts | 218° |
| 2026-04-29 21:42 | 36.75178 | -77.96111 | 8369 ft | 261 kts | 219° |
| 2026-04-29 21:42 | 36.73735 | -77.97411 | 8174 ft | 251 kts | 218° |
| 2026-04-29 21:42 | 36.72335 | -77.98663 | 7969 ft | 243 kts | 218° |
| 2026-04-29 21:42 | 36.70982 | -77.99870 | 7770 ft | 236 kts | 218° |
| 2026-04-29 21:43 | 36.69662 | -78.01047 | 7573 ft | 231 kts | 218° |
| 2026-04-29 21:43 | 36.68373 | -78.02194 | 7377 ft | 227 kts | 218° |
| 2026-04-29 21:43 | 36.67094 | -78.03330 | 7179 ft | 225 kts | 218° |
| 2026-04-29 21:43 | 36.65819 | -78.04463 | 6990 ft | 225 kts | 218° |
| 2026-04-29 21:44 | 36.64547 | -78.05592 | 6791 ft | 224 kts | 218° |
| 2026-04-29 21:44 | 36.63264 | -78.06731 | 6595 ft | 225 kts | 218° |
| 2026-04-29 21:44 | 36.61997 | -78.07855 | 6400 ft | 226 kts | 218° |
| 2026-04-29 21:44 | 36.60718 | -78.08988 | 6206 ft | 227 kts | 217° |
| 2026-04-29 21:45 | 36.59415 | -78.10144 | 6007 ft | 228 kts | 217° |
| 2026-04-29 21:45 | 36.58138 | -78.11275 | 5813 ft | 228 kts | 217° |
| 2026-04-29 21:45 | 36.56844 | -78.12421 | 5616 ft | 228 kts | 218° |
| 2026-04-29 21:45 | 36.55547 | -78.13567 | 5486 ft | 225 kts | 217° |
| 2026-04-29 21:46 | 36.54282 | -78.14684 | 5466 ft | 218 kts | 218° |
| 2026-04-29 21:46 | 36.53071 | -78.15755 | 5463 ft | 212 kts | 218° |
| 2026-04-29 21:46 | 36.51877 | -78.16811 | 5465 ft | 207 kts | 217° |
| 2026-04-29 21:46 | 36.50707 | -78.17842 | 5459 ft | 205 kts | 217° |
| 2026-04-29 21:47 | 36.49567 | -78.18848 | 5461 ft | 202 kts | 218° |
| 2026-04-29 21:47 | 36.48404 | -78.19874 | 5455 ft | 201 kts | 218° |
| 2026-04-29 21:47 | 36.47275 | -78.20872 | 5452 ft | 200 kts | 218° |
| 2026-04-29 21:47 | 36.46139 | -78.21873 | 5448 ft | 198 kts | 218° |
| 2026-04-29 21:48 | 36.45023 | -78.22856 | 5450 ft | 197 kts | 218° |
| 2026-04-29 21:48 | 36.43895 | -78.23852 | 5452 ft | 196 kts | 218° |
| 2026-04-29 21:48 | 36.42797 | -78.24820 | 5458 ft | 195 kts | 218° |
| 2026-04-29 21:48 | 36.41683 | -78.25802 | 5459 ft | 195 kts | 218° |
| 2026-04-29 21:49 | 36.40580 | -78.26773 | 5459 ft | 194 kts | 218° |
| 2026-04-29 21:49 | 36.39475 | -78.27747 | 5464 ft | 194 kts | 218° |
| 2026-04-29 21:49 | 36.38379 | -78.28712 | 5466 ft | 194 kts | 218° |
| 2026-04-29 21:49 | 36.37275 | -78.29684 | 5467 ft | 194 kts | 218° |
| 2026-04-29 21:50 | 36.36166 | -78.30659 | 5469 ft | 194 kts | 218° |
| 2026-04-29 21:50 | 36.35076 | -78.31618 | 5466 ft | 194 kts | 218° |
| 2026-04-29 21:50 | 36.33940 | -78.32622 | 5259 ft | 201 kts | 218° |
| 2026-04-29 21:50 | 36.32794 | -78.33634 | 5067 ft | 204 kts | 218° |
| 2026-04-29 21:51 | 36.31628 | -78.34661 | 4868 ft | 207 kts | 218° |
| 2026-04-29 21:51 | 36.30463 | -78.35687 | 4672 ft | 208 kts | 218° |
| 2026-04-29 21:51 | 36.28063 | -78.37795 | 4270 ft | 211 kts | 217° |
| 2026-04-29 21:52 | 36.26863 | -78.38849 | 4073 ft | 212 kts | 217° |
| 2026-04-29 21:52 | 36.25661 | -78.39902 | 3983 ft | 208 kts | 217° |
| 2026-04-29 21:52 | 36.24510 | -78.40917 | 3972 ft | 201 kts | 218° |
| 2026-04-29 21:52 | 36.23381 | -78.41915 | 3971 ft | 194 kts | 218° |
| 2026-04-29 21:53 | 36.22298 | -78.42871 | 3972 ft | 189 kts | 218° |
| 2026-04-29 21:53 | 36.21241 | -78.43800 | 3971 ft | 185 kts | 218° |
| 2026-04-29 21:53 | 36.20200 | -78.44712 | 3971 ft | 181 kts | 218° |
| 2026-04-29 21:53 | 36.19180 | -78.45606 | 3966 ft | 178 kts | 218° |
| 2026-04-29 21:54 | 36.18175 | -78.46484 | 3966 ft | 176 kts | 218° |
| 2026-04-29 21:54 | 36.17176 | -78.47359 | 3964 ft | 174 kts | 218° |
| 2026-04-29 21:54 | 36.16200 | -78.48212 | 3964 ft | 172 kts | 218° |
| 2026-04-29 21:54 | 36.15216 | -78.49072 | 3962 ft | 170 kts | 218° |
| 2026-04-29 21:55 | 36.14246 | -78.49920 | 3963 ft | 169 kts | 218° |
| 2026-04-29 21:55 | 36.13285 | -78.50755 | 3966 ft | 172 kts | 218° |
| 2026-04-29 21:55 | 36.12299 | -78.51616 | 3967 ft | 175 kts | 218° |
| 2026-04-29 21:55 | 36.11286 | -78.52501 | 3965 ft | 178 kts | 218° |
| 2026-04-29 21:56 | 36.10260 | -78.53397 | 3961 ft | 181 kts | 218° |
| 2026-04-29 21:56 | 36.09230 | -78.54296 | 3962 ft | 183 kts | 218° |
| 2026-04-29 21:56 | 36.08192 | -78.55201 | 3964 ft | 184 kts | 218° |
| 2026-04-29 21:56 | 36.07135 | -78.56123 | 3968 ft | 185 kts | 218° |
| 2026-04-29 21:57 | 36.06089 | -78.57061 | 3960 ft | 186 kts | 223° |
| 2026-04-29 21:57 | 36.05166 | -78.58173 | 3960 ft | 186 kts | 227° |
| 2026-04-29 21:57 | 36.04260 | -78.59309 | 3957 ft | 182 kts | 228° |
| 2026-04-29 21:57 | 36.03386 | -78.60401 | 3955 ft | 176 kts | 228° |
| 2026-04-29 21:58 | 36.02538 | -78.61455 | 3952 ft | 170 kts | 228° |
| 2026-04-29 21:58 | 36.01699 | -78.62508 | 3777 ft | 168 kts | 229° |
| 2026-04-29 21:58 | 36.00905 | -78.63505 | 3571 ft | 161 kts | 229° |
| 2026-04-29 21:58 | 36.00186 | -78.64394 | 3680 ft | 133 kts | 228° |
| 2026-04-29 21:59 | 35.99519 | -78.65223 | 3459 ft | 138 kts | 228° |
| 2026-04-29 21:59 | 35.98840 | -78.66067 | 3270 ft | 140 kts | 228° |
| 2026-04-29 21:59 | 35.98139 | -78.66939 | 3079 ft | 142 kts | 227° |
| 2026-04-29 21:59 | 35.97455 | -78.67788 | 2888 ft | 140 kts | 227° |
| 2026-04-29 22:00 | 35.96775 | -78.68639 | 2688 ft | 139 kts | 228° |
| 2026-04-29 22:00 | 35.96122 | -78.69470 | 2555 ft | 128 kts | 228° |
| 2026-04-29 22:00 | 35.95502 | -78.70252 | 2319 ft | 123 kts | 228° |
| 2026-04-29 22:00 | 35.94920 | -78.70976 | 2181 ft | 112 kts | 228° |
| 2026-04-29 22:01 | 35.94411 | -78.71596 | 2128 ft | 98 kts | 225° |
| 2026-04-29 22:01 | 35.93927 | -78.72160 | 2019 ft | 96 kts | 228° |
| 2026-04-29 22:01 | 35.93465 | -78.72750 | 1759 ft | 96 kts | 225° |
| 2026-04-29 22:01 | 35.92995 | -78.73327 | 1506 ft | 94 kts | 227° |
| 2026-04-29 22:02 | 35.92501 | -78.73902 | 1329 ft | 100 kts | 223° |
| 2026-04-29 22:02 | 35.92009 | -78.74523 | 1163 ft | 102 kts | 225° |
| 2026-04-29 22:02 | 35.91513 | -78.75131 | 1009 ft | 100 kts | 224° |
| 2026-04-29 22:02 | 35.91021 | -78.75735 | 852 ft | 99 kts | 225° |
| 2026-04-29 22:03 | 35.90540 | -78.76331 | 735 ft | 100 kts | 225° |
| 2026-04-29 22:03 | 35.90055 | -78.76949 | 618 ft | 100 kts | 226° |
| 2026-04-29 22:03 | 35.89579 | -78.77542 | 491 ft | 100 kts | 226° |
| 2026-04-29 22:03 | 35.89093 | -78.78142 | 395 ft | 93 kts | 226° |
| 2026-04-29 22:04 | 35.88734 | -78.78604 | 392 ft | 44 kts | 226° |
| 2026-04-29 22:04 | 35.88605 | -78.78735 | 395 ft | 15 kts | 178° |
| 2026-04-29 22:04 | 35.88547 | -78.78685 | 398 ft | 0 kts | 133° |
| 2026-04-29 22:06 | 35.88536 | -78.78675 | 398 ft | 6 kts | 166° |
| 2026-04-29 22:06 | 35.88476 | -78.78729 | 398 ft | 16 kts | 222° |
| 2026-04-29 22:06 | 35.88387 | -78.78840 | 395 ft | 21 kts | 229° |
| 2026-04-29 22:06 | 35.88302 | -78.78946 | 394 ft | 7 kts | 230° |
| 2026-04-29 22:07 | 35.88226 | -78.78996 | 393 ft | 17 kts | 161° |
| 2026-04-29 22:07 | 35.88128 | -78.78884 | 401 ft | 20 kts | 135° |
| 2026-04-29 22:07 | 35.88019 | -78.78753 | 410 ft | 23 kts | 137° |
| 2026-04-29 22:07 | 35.87902 | -78.78610 | 420 ft | 24 kts | 133° |
| 2026-04-29 22:08 | 35.87796 | -78.78479 | 426 ft | 12 kts | 131° |
| 2026-04-29 22:08 | 35.87806 | -78.78378 | 428 ft | 13 kts | 18° |
| 2026-04-29 22:08 | 35.87900 | -78.78464 | 425 ft | 22 kts | 311° |
| 2026-04-29 22:08 | 35.87962 | -78.78552 | 421 ft | 5 kts | 347° |
| 2026-04-29 22:09 | 35.87976 | -78.78538 | 421 ft | 0 kts | 41° |